Time;durP1;ratioP1;P1;durP2;ratioP2;P2;SDS_P1;SDS_P2;PMS_P1;PMS_P2;Temp;Humidity;BMP_temperature;BMP_pressure;BME280_temperature;BME280_humidity;BME280_pressure;Samples;Min_cycle;Max_cycle;Signal;HPM_P1;HPM_P2
2023/06/16 00:03:52;;;;;;;15.10;10.30;;;;;;;13.58;100.00;100419.95;222212;1266;139355;-86
2023/06/16 00:08:54;;;;;;;13.50;9.20;;;;;;;13.52;100.00;100409.85;221415;1264;142952;-87
2023/06/16 00:13:55;;;;;;;17.10;10.50;;;;;;;13.49;100.00;100413.48;222006;1266;139290;-86
2023/06/16 00:18:57;;;;;;;13.50;9.20;;;;;;;13.43;100.00;100410.25;221361;1266;141373;-87
2023/06/16 00:23:58;;;;;;;16.00;10.40;;;;;;;13.38;100.00;100404.96;221878;1268;139488;-87
2023/06/16 00:28:58;;;;;;;13.90;9.20;;;;;;;13.31;100.00;100401.81;221470;1266;140674;-88
2023/06/16 00:34:00;;;;;;;14.10;9.80;;;;;;;13.24;100.00;100400.70;222241;1264;139371;-87
2023/06/16 00:39:00;;;;;;;17.30;9.20;;;;;;;13.16;100.00;100395.02;221323;1266;142176;-89
2023/06/16 00:44:02;;;;;;;14.90;9.80;;;;;;;13.08;100.00;100393.45;221945;1268;139140;-87
2023/06/16 00:49:03;;;;;;;14.10;9.90;;;;;;;13.03;100.00;100390.98;221374;1269;140183;-89
2023/06/16 00:54:03;;;;;;;14.20;9.90;;;;;;;12.97;100.00;100392.32;221897;1267;139353;-89
2023/06/16 00:59:05;;;;;;;13.40;9.60;;;;;;;12.87;100.00;100392.84;221483;1267;140752;-90
2023/06/16 01:04:05;;;;;;;14.80;9.80;;;;;;;12.79;100.00;100388.34;221932;1267;138979;-88
2023/06/16 01:09:18;;;;;;;15.80;10.80;;;;;;;12.73;100.00;100390.45;221279;1266;141852;-89
2023/06/16 01:14:43;;;;;;;13.30;9.50;;;;;;;12.66;100.00;100390.20;221919;1268;139381;-89
2023/06/16 01:20:01;;;;;;;12.80;9.40;;;;;;;12.60;100.00;100389.24;221573;1267;140777;-88
2023/06/16 01:25:03;;;;;;;17.80;10.60;;;;;;;12.55;100.00;100385.61;222191;1268;139216;-89
2023/06/16 01:30:06;;;;;;;14.10;9.90;;;;;;;12.54;100.00;100383.86;221463;1268;141428;-89
2023/06/16 01:35:12;;;;;;;17.70;11.10;;;;;;;12.51;100.00;100383.63;222149;1266;97944;-89
2023/06/16 01:40:13;;;;;;;18.80;10.10;;;;;;;12.51;100.00;100377.63;221419;1266;141448;-89
2023/06/16 01:45:16;;;;;;;13.90;8.80;;;;;;;12.50;100.00;100375.41;222109;1268;139384;-90
2023/06/16 01:50:16;;;;;;;13.80;10.20;;;;;;;12.52;100.00;100376.45;221298;1266;141100;-89
2023/06/16 01:55:17;;;;;;;12.70;8.70;;;;;;;12.56;100.00;100374.09;221847;1263;139404;-91
2023/06/16 02:00:27;;;;;;;15.50;11.00;;;;;;;12.58;100.00;100362.02;221287;1267;141293;-91
2023/06/16 02:05:30;;;;;;;18.90;12.10;;;;;;;12.60;100.00;100365.89;221911;1267;106721;-90
2023/06/16 02:10:31;;;;;;;16.70;12.00;;;;;;;12.61;100.00;100367.78;221166;1264;141214;-90
2023/06/16 02:15:32;;;;;;;17.30;11.70;;;;;;;12.63;100.00;100370.33;221738;1264;139317;-89
2023/06/16 02:20:33;;;;;;;19.30;13.80;;;;;;;12.64;100.00;100376.40;221346;1264;140789;-92
2023/06/16 02:25:34;;;;;;;15.00;11.10;;;;;;;12.64;100.00;100374.50;221839;1264;139413;-91
2023/06/16 02:30:34;;;;;;;14.80;9.60;;;;;;;12.65;100.00;100376.70;221440;1268;140973;-92
2023/06/16 02:35:35;;;;;;;18.20;12.20;;;;;;;12.64;100.00;100377.50;221981;1264;97954;-90
2023/06/16 02:40:35;;;;;;;18.00;12.90;;;;;;;12.61;100.00;100372.21;221422;1264;141461;-90
2023/06/16 02:45:36;;;;;;;15.70;11.60;;;;;;;12.60;100.00;100370.62;221865;1264;139201;-93
2023/06/16 02:50:37;;;;;;;16.90;12.90;;;;;;;12.61;100.00;100368.58;221360;1264;140171;-92
2023/06/16 02:55:38;;;;;;;17.20;13.30;;;;;;;12.58;100.00;100366.59;222005;1267;139385;-93
2023/06/16 03:01:00;;;;;;;22.90;15.30;;;;;;;12.56;100.00;100368.09;220686;1272;141102;-92
2023/06/16 03:06:02;;;;;;;22.80;15.00;;;;;;;12.56;100.00;100369.44;221171;1270;139588;-93
2023/06/16 03:11:06;;;;;;;21.40;15.20;;;;;;;12.54;100.00;100373.14;220816;1272;141056;-93
2023/06/16 03:16:08;;;;;;;22.40;16.70;;;;;;;12.52;100.00;100374.64;221276;1273;139459;-92
2023/06/16 03:21:10;;;;;;;22.30;16.40;;;;;;;12.52;100.00;100369.35;220753;1272;140718;-92
2023/06/16 03:26:35;;;;;;;22.80;15.10;;;;;;;12.50;100.00;100362.56;221297;1272;139481;-92
2023/06/16 03:31:40;;;;;;;24.40;14.80;;;;;;;12.49;100.00;100366.19;221240;1267;141299;-93
2023/06/16 03:37:20;;;;;;;24.30;17.00;;;;;;;12.49;100.00;100361.21;222002;1264;139400;-94
2023/06/16 03:48:46;;;;;;;;;;;;;;;12.54;100.00;100355.33;221623;1270;139614;-93
2023/06/16 03:53:46;;;;;;;28.00;17.70;;;;;;;12.58;100.00;100357.05;221211;1267;126057;-93
2023/06/16 03:58:55;;;;;;;27.00;18.10;;;;;;;12.64;100.00;100358.88;221444;1267;139137;-94
2023/06/16 04:09:35;;;;;;;27.40;18.60;;;;;;;12.80;100.00;100355.35;220659;1270;141245;-92
2023/06/16 04:14:39;;;;;;;26.00;19.90;;;;;;;12.90;100.00;100355.83;221475;1267;139466;-92
2023/06/16 04:19:41;;;;;;;29.70;22.10;;;;;;;13.06;100.00;100356.34;221246;1264;140219;-93
2023/06/16 04:24:43;;;;;;;32.50;24.10;;;;;;;13.22;100.00;100352.46;222145;1267;139457;-92
2023/06/16 04:29:46;;;;;;;32.70;23.60;;;;;;;13.40;100.00;100348.48;221610;1264;141114;-89
2023/06/16 04:34:49;;;;;;;27.10;19.80;;;;;;;13.60;100.00;100352.86;221855;1264;139063;-89
2023/06/16 04:39:54;;;;;;;25.10;20.30;;;;;;;13.81;100.00;100350.60;221296;1264;141757;-92
2023/06/16 04:44:55;;;;;;;31.30;23.40;;;;;;;14.03;100.00;100351.54;221991;1264;139686;-88
2023/06/16 04:49:55;;;;;;;27.80;23.10;;;;;;;14.23;100.00;100346.89;221518;1267;141161;-88
2023/06/16 04:54:56;;;;;;;29.00;24.10;;;;;;;14.42;100.00;100338.95;221920;1264;139590;-89
2023/06/16 04:59:56;;;;;;;26.90;22.40;;;;;;;14.60;100.00;100338.05;221367;1264;141672;-89
2023/06/16 05:04:57;;;;;;;24.50;19.90;;;;;;;14.79;100.00;100337.20;222373;1267;97923;-88
2023/06/16 05:09:57;;;;;;;23.80;20.10;;;;;;;14.98;100.00;100342.13;221420;1264;143104;-86
2023/06/16 05:14:58;;;;;;;25.80;22.30;;;;;;;15.14;100.00;100348.27;222085;1264;139554;-88
2023/06/16 05:19:58;;;;;;;27.80;20.50;;;;;;;15.24;100.00;100349.66;221483;1264;142443;-86
2023/06/16 05:24:59;;;;;;;26.70;20.20;;;;;;;15.36;100.00;100351.15;222021;1264;140535;-87
2023/06/16 05:30:00;;;;;;;23.30;18.30;;;;;;;15.49;100.00;100348.89;221267;1264;142600;-86
2023/06/16 05:35:01;;;;;;;22.70;17.80;;;;;;;15.59;100.00;100348.16;222317;1264;97922;-89
2023/06/16 05:40:02;;;;;;;23.70;18.00;;;;;;;15.71;100.00;100347.63;221478;1264;141269;-88
2023/06/16 05:45:02;;;;;;;21.70;17.70;;;;;;;15.86;100.00;100343.65;222045;1264;139592;-87
2023/06/16 05:50:03;;;;;;;25.10;20.50;;;;;;;15.98;100.00;100347.23;221662;1264;141258;-88
2023/06/16 05:55:04;;;;;;;27.40;19.50;;;;;;;16.14;100.00;100351.64;221892;1264;139366;-87
2023/06/16 06:00:06;;;;;;;26.40;20.40;;;;;;;16.26;100.00;100359.26;221692;1264;142292;-87
2023/06/16 06:05:06;;;;;;;26.20;20.40;;;;;;;16.41;100.00;100363.51;222315;1264;98277;-88
2023/06/16 06:10:07;;;;;;;32.80;21.00;;;;;;;16.59;100.00;100366.45;221647;1264;141037;-87
2023/06/16 06:15:15;;;;;;;25.20;19.70;;;;;;;16.74;100.00;100366.45;222021;1264;139588;-91
2023/06/16 06:20:16;;;;;;;24.00;18.70;;;;;;;16.87;100.00;100368.08;221515;1264;141870;-88
2023/06/16 06:25:16;;;;;;;23.20;17.60;;;;;;;17.01;100.00;100372.87;222004;1267;138585;-90
2023/06/16 06:30:17;;;;;;;20.60;15.80;;;;;;;17.22;100.00;100373.71;221655;1267;141914;-87
2023/06/16 06:35:17;;;;;;;21.80;15.30;;;;;;;17.42;100.00;100366.88;222047;1264;275726;-88
2023/06/16 06:40:17;;;;;;;22.10;15.30;;;;;;;17.65;100.00;100370.92;221473;1264;141636;-88
2023/06/16 06:45:18;;;;;;;21.90;14.80;;;;;;;17.77;99.67;100377.61;221804;1264;140167;-86
2023/06/16 06:50:18;;;;;;;20.90;14.40;;;;;;;17.91;99.37;100379.33;221427;1266;141837;-87
2023/06/16 06:55:18;;;;;;;22.00;15.50;;;;;;;18.11;98.00;100380.05;222267;1263;140103;-85
2023/06/16 07:00:19;;;;;;;19.40;13.80;;;;;;;18.28;97.17;100386.31;221485;1263;141048;-88
2023/06/16 07:05:19;;;;;;;19.00;13.20;;;;;;;18.56;96.89;100392.25;222277;1264;97938;-88
2023/06/16 07:10:20;;;;;;;16.20;11.90;;;;;;;18.88;95.15;100391.52;221486;1264;140531;-86
2023/06/16 07:15:20;;;;;;;19.10;12.50;;;;;;;19.20;93.97;100392.11;222236;1264;139208;-86
2023/06/16 07:20:21;;;;;;;18.90;11.80;;;;;;;19.51;92.15;100384.48;221677;1264;140135;-87
2023/06/16 07:25:21;;;;;;;16.40;11.60;;;;;;;19.85;91.62;100382.06;221907;1264;139265;-86
2023/06/16 07:30:22;;;;;;;17.50;11.70;;;;;;;20.20;90.88;100381.01;221427;1265;145931;-84
2023/06/16 07:35:22;;;;;;;15.80;10.90;;;;;;;20.57;88.93;100374.79;222300;1264;97863;-87
2023/06/16 07:40:22;;;;;;;17.70;10.30;;;;;;;20.80;87.69;100373.27;221525;1263;142575;-88
2023/06/16 07:45:23;;;;;;;14.00;10.20;;;;;;;21.24;86.91;100377.43;222213;1264;139432;-88
2023/06/16 07:50:28;;;;;;;11.50;8.30;;;;;;;21.72;85.00;100381.18;221457;1264;140413;-91
2023/06/16 07:55:29;;;;;;;14.70;8.90;;;;;;;22.07;80.12;100379.78;221923;1267;139056;-88
2023/06/16 08:00:29;;;;;;;13.90;9.40;;;;;;;22.24;80.27;100378.19;221542;1264;140374;-88
2023/06/16 08:05:30;;;;;;;16.60;9.40;;;;;;;22.68;77.51;100377.08;222128;1264;97982;-87
2023/06/16 08:10:30;;;;;;;15.00;9.30;;;;;;;23.23;78.09;100379.65;221659;1264;140835;-88
2023/06/16 08:15:30;;;;;;;11.70;7.90;;;;;;;23.94;73.95;100381.73;222063;1264;139077;-88
2023/06/16 08:20:32;;;;;;;15.60;8.00;;;;;;;24.51;71.89;100375.27;221380;1264;141963;-89
2023/06/16 08:25:32;;;;;;;13.10;6.90;;;;;;;25.12;71.35;100370.18;222079;1264;138471;-92
2023/06/16 08:30:34;;;;;;;11.20;6.80;;;;;;;25.81;66.82;100364.39;221740;1264;140016;-89
2023/06/16 08:35:35;;;;;;;11.10;6.90;;;;;;;26.16;65.56;100364.52;222173;1264;97905;-88
2023/06/16 08:40:35;;;;;;;14.40;6.30;;;;;;;26.77;61.25;100363.73;221635;1264;140223;-89
2023/06/16 08:45:37;;;;;;;11.70;6.90;;;;;;;26.97;59.11;100362.56;222024;1264;138316;-91
2023/06/16 08:50:38;;;;;;;13.20;8.30;;;;;;;27.25;57.94;100360.69;221502;1264;139012;-92
2023/06/16 08:55:40;;;;;;;11.90;6.70;;;;;;;27.47;59.20;100363.27;222009;1263;138449;-91
2023/06/16 09:00:41;;;;;;;15.30;8.20;;;;;;;27.86;56.67;100364.97;221751;1263;139879;-90
2023/06/16 09:05:42;;;;;;;13.40;8.60;;;;;;;28.11;57.36;100365.45;221983;1264;98002;-92
2023/06/16 09:11:06;;;;;;;18.00;9.00;;;;;;;28.47;55.07;100362.98;221496;1264;139160;-95
2023/06/16 09:16:06;;;;;;;11.20;7.60;;;;;;;28.27;51.67;100361.36;221984;1264;138756;-91
2023/06/16 09:21:09;;;;;;;15.00;7.90;;;;;;;27.94;52.62;100357.81;221212;1263;143892;-93
2023/06/16 09:32:15;;;;;;;12.20;7.10;;;;;;;27.01;50.80;100351.17;221284;1267;140024;-88
2023/06/16 09:37:35;;;;;;;10.70;6.30;;;;;;;26.47;52.33;100354.42;221943;1267;138681;-90
2023/06/16 09:48:34;;;;;;;11.20;6.40;;;;;;;27.01;51.14;100339.57;221043;1274;137902;-91
2023/06/16 09:53:41;;;;;;;9.80;5.50;;;;;;;27.38;50.84;100342.63;221460;1267;139248;-94
2023/06/16 09:58:43;;;;;;;9.50;5.00;;;;;;;27.42;47.18;100338.84;222252;1264;139041;-91
2023/06/16 10:03:55;;;;;;;8.30;5.10;;;;;;;27.74;48.00;100329.31;221586;1264;139592;-89
2023/06/16 10:08:59;;;;;;;11.40;5.30;;;;;;;28.43;46.95;100325.64;221472;1267;139858;-89
2023/06/16 10:14:05;;;;;;;10.70;5.60;;;;;;;28.87;45.87;100328.65;222118;1267;138756;-94
2023/06/16 10:19:08;;;;;;;11.30;5.30;;;;;;;28.88;42.91;100325.05;221437;1265;139199;-87
2023/06/16 10:24:09;;;;;;;9.90;4.90;;;;;;;28.63;43.96;100319.55;222321;1266;138297;-91
2023/06/16 10:29:16;;;;;;;8.30;5.00;;;;;;;28.87;43.17;100317.73;221645;1265;143879;-93
2023/06/16 10:34:22;;;;;;;11.00;5.20;;;;;;;28.32;42.07;100318.43;221807;1267;138198;-88
2023/06/16 10:39:23;;;;;;;9.60;5.40;;;;;;;27.89;43.18;100318.10;221352;1265;139865;-87
2023/06/16 10:44:32;;;;;;;9.00;5.90;;;;;;;27.74;43.17;100313.33;221935;1264;138818;-92
2023/06/16 10:49:44;;;;;;;8.40;4.40;;;;;;;27.64;43.03;100313.77;221349;1267;139065;-87
2023/06/16 10:54:51;;;;;;;6.30;3.90;;;;;;;27.89;43.69;100306.41;222055;1267;138627;-94
2023/06/16 10:59:55;;;;;;;8.00;4.10;;;;;;;28.32;42.25;100300.16;221456;1264;139708;-93
2023/06/16 11:05:37;;;;;;;8.80;4.70;;;;;;;28.79;41.68;100293.20;222028;1264;137891;-89
2023/06/16 11:10:51;;;;;;;13.40;6.00;;;;;;;29.51;40.60;100287.75;221452;1263;139990;-88
2023/06/16 11:15:56;;;;;;;7.20;4.30;;;;;;;29.52;41.45;100281.72;222009;1267;138343;-93
2023/06/16 11:20:58;;;;;;;11.70;5.20;;;;;;;29.94;39.50;100281.48;221336;1264;139819;-89
2023/06/16 11:26:07;;;;;;;10.40;6.30;;;;;;;29.17;38.85;100285.02;222116;1264;137878;-95
2023/06/16 11:31:24;;;;;;;15.00;6.80;;;;;;;28.64;41.81;100285.37;222880;1262;111142;-86
2023/06/16 11:36:24;;;;;;;15.70;7.40;;;;;;;28.84;43.07;100282.52;221114;1263;139127;-88
2023/06/16 11:41:27;;;;;;;10.00;6.70;;;;;;;28.91;42.80;100283.40;220755;1262;139641;-91
2023/06/16 11:46:32;;;;;;;13.80;6.90;;;;;;;28.66;43.04;100285.37;221297;1268;138944;-93
2023/06/16 11:51:33;;;;;;;11.00;6.90;;;;;;;28.54;44.35;100284.00;220769;1268;140475;-90
2023/06/16 11:56:34;;;;;;;11.70;6.60;;;;;;;28.25;43.73;100282.77;220939;1266;138314;-89
2023/06/16 12:01:35;;;;;;;13.20;7.20;;;;;;;27.87;43.32;100276.41;220342;1268;140548;-90
2023/06/16 12:06:37;;;;;;;11.10;6.10;;;;;;;27.63;43.51;100272.16;220948;1264;138564;-91
2023/06/16 12:11:37;;;;;;;11.00;5.70;;;;;;;27.27;43.76;100271.66;220612;1264;140909;-93
2023/06/16 12:16:38;;;;;;;10.90;6.60;;;;;;;27.12;45.05;100266.16;221871;1267;138396;-91
2023/06/16 12:21:38;;;;;;;9.90;5.90;;;;;;;27.11;43.78;100268.25;220634;1268;140388;-92
2023/06/16 12:26:43;;;;;;;10.90;6.00;;;;;;;27.21;43.67;100265.99;223258;1267;138478;-88
2023/06/16 12:32:03;;;;;;;9.20;5.00;;;;;;;27.42;41.48;100263.59;222858;1263;140655;-89
2023/06/16 12:37:07;;;;;;;8.50;4.70;;;;;;;27.64;41.84;100254.60;223373;1264;138842;-90
2023/06/16 12:42:10;;;;;;;12.50;5.80;;;;;;;28.21;41.67;100245.77;223046;1263;140563;-90
2023/06/16 12:47:13;;;;;;;9.90;6.30;;;;;;;28.51;41.27;100242.63;223243;1264;110474;-91
2023/06/16 12:52:15;;;;;;;11.20;5.90;;;;;;;28.79;42.81;100239.11;222666;1267;140079;-90
2023/06/16 12:57:16;;;;;;;13.70;6.00;;;;;;;29.13;42.06;100241.43;222960;1264;138345;-91
2023/06/16 13:02:17;;;;;;;8.80;5.50;;;;;;;29.41;42.46;100245.16;222778;1267;141172;-91
2023/06/16 13:07:18;;;;;;;10.30;6.20;;;;;;;29.80;41.95;100247.67;223386;1264;138740;-90
2023/06/16 13:12:18;;;;;;;12.90;6.40;;;;;;;29.70;39.33;100243.55;222587;1267;140614;-91
2023/06/16 13:17:19;;;;;;;10.80;6.40;;;;;;;28.85;40.19;100238.13;223552;1267;97960;-93
2023/06/16 13:22:19;;;;;;;11.20;6.60;;;;;;;28.53;41.30;100240.23;222788;1267;140304;-91
2023/06/16 13:27:20;;;;;;;9.30;5.90;;;;;;;28.45;40.94;100236.10;223436;1264;138963;-94
2023/06/16 13:32:20;;;;;;;12.90;5.80;;;;;;;28.35;42.47;100235.23;222715;1267;140499;-94
2023/06/16 13:37:21;;;;;;;8.80;5.50;;;;;;;28.41;41.76;100236.88;223123;1267;138542;-91
2023/06/16 13:42:21;;;;;;;12.00;5.90;;;;;;;28.35;41.34;100231.59;222783;1264;140333;-94
2023/06/16 13:47:22;;;;;;;10.00;5.90;;;;;;;28.31;42.14;100229.70;223509;1267;96892;-90
2023/06/16 13:52:22;;;;;;;10.50;5.40;;;;;;;28.37;41.57;100226.14;222830;1264;141045;-93
2023/06/16 13:57:22;;;;;;;9.60;5.20;;;;;;;28.21;41.94;100219.00;223461;1264;139467;-92
2023/06/16 14:02:23;;;;;;;10.80;6.10;;;;;;;28.16;43.31;100222.52;222824;1264;139500;-92
2023/06/16 14:07:24;;;;;;;20.20;7.30;;;;;;;28.21;43.41;100221.27;221156;1264;139011;-92
2023/06/16 14:12:25;;;;;;;11.60;6.50;;;;;;;28.27;42.48;100218.74;222262;1264;141291;-91
2023/06/16 14:17:25;;;;;;;9.50;6.20;;;;;;;27.98;43.13;100218.77;223390;1267;97884;-91
2023/06/16 14:22:26;;;;;;;14.10;7.10;;;;;;;27.81;43.94;100220.45;222866;1264;139877;-95
2023/06/16 14:27:26;;;;;;;11.70;5.90;;;;;;;27.87;43.53;100221.45;223072;1264;139374;-92
2023/06/16 14:32:27;;;;;;;10.20;5.50;;;;;;;27.84;43.26;100225.32;222821;1264;140222;-94
2023/06/16 14:37:27;;;;;;;9.00;5.40;;;;;;;27.81;43.60;100226.51;223446;1264;138429;-93
2023/06/16 14:42:28;;;;;;;10.00;5.90;;;;;;;27.79;43.17;100226.09;222939;1264;140659;-89
2023/06/16 14:47:28;;;;;;;9.90;5.70;;;;;;;27.77;43.04;100230.53;223566;1263;96554;-89
2023/06/16 14:52:29;;;;;;;10.30;5.80;;;;;;;27.77;43.76;100228.05;222979;1263;140270;-90
2023/06/16 14:57:32;;;;;;;7.30;4.50;;;;;;;27.56;42.76;100226.23;223522;1263;139374;-90
2023/06/16 15:02:33;;;;;;;7.10;4.50;;;;;;;27.17;41.53;100226.95;222937;1264;140384;-87
2023/06/16 15:07:34;;;;;;;8.40;4.60;;;;;;;27.08;41.53;100224.39;223291;1264;138897;-87
2023/06/16 15:12:34;;;;;;;8.00;4.60;;;;;;;26.91;41.84;100229.16;222944;1263;139973;-87
2023/06/16 15:17:35;;;;;;;13.10;4.80;;;;;;;26.79;42.45;100219.70;223587;1264;97853;-86
2023/06/16 15:22:35;;;;;;;10.70;4.30;;;;;;;26.74;43.65;100218.55;222781;1264;141424;-86
2023/06/16 15:27:39;;;;;;;6.90;3.80;;;;;;;26.81;43.48;100217.26;223521;1264;138977;-87
2023/06/16 15:32:39;;;;;;;5.90;3.40;;;;;;;26.69;43.07;100210.05;222836;1263;141623;-85
2023/06/16 15:37:40;;;;;;;7.30;3.40;;;;;;;26.73;43.88;100207.65;223505;1263;139399;-85
2023/06/16 15:42:47;;;;;;;6.70;3.50;;;;;;;26.72;43.04;100206.72;222925;1264;140188;-86
2023/06/16 15:47:48;;;;;;;8.40;3.80;;;;;;;26.63;43.21;100199.55;223560;1264;111749;-85
2023/06/16 15:52:48;;;;;;;7.70;4.00;;;;;;;26.59;43.72;100194.66;221104;1264;139965;-86
2023/06/16 15:57:49;;;;;;;6.90;3.50;;;;;;;26.62;43.33;100186.70;221989;1263;138414;-87
2023/06/16 16:02:49;;;;;;;6.30;3.80;;;;;;;26.58;42.25;100186.85;222733;1267;140607;-86
2023/06/16 16:07:49;;;;;;;7.00;4.30;;;;;;;26.30;41.34;100185.79;223488;1264;138799;-86
2023/06/16 16:12:50;;;;;;;6.20;4.00;;;;;;;25.89;42.98;100179.31;222953;1263;139852;-86
2023/06/16 16:17:50;;;;;;;7.70;4.90;;;;;;;25.57;44.40;100175.55;223511;1263;96418;-86
2023/06/16 16:22:51;;;;;;;10.00;5.00;;;;;;;25.21;45.07;100181.35;223104;1264;139965;-87
2023/06/16 16:27:51;;;;;;;8.80;4.80;;;;;;;24.98;46.20;100182.27;223628;1264;138821;-87
2023/06/16 16:32:52;;;;;;;11.50;5.70;;;;;;;24.82;47.55;100184.23;223083;1263;140010;-87
2023/06/16 16:37:53;;;;;;;8.40;5.20;;;;;;;24.54;48.22;100183.13;223594;1264;138994;-87
2023/06/16 16:42:53;;;;;;;8.50;5.10;;;;;;;24.27;49.31;100183.40;223006;1266;140479;-87
2023/06/16 16:47:53;;;;;;;9.50;5.40;;;;;;;24.11;50.19;100184.95;223720;1263;96245;-88
2023/06/16 16:52:54;;;;;;;8.60;4.20;;;;;;;24.01;50.48;100190.76;222970;1263;139670;-87
2023/06/16 16:57:56;;;;;;;8.50;5.20;;;;;;;23.87;51.02;100194.05;223389;1264;138817;-86
2023/06/16 17:02:57;;;;;;;9.60;5.60;;;;;;;23.70;51.32;100193.86;222805;1263;140382;-85
2023/06/16 17:07:57;;;;;;;10.90;5.90;;;;;;;23.41;51.84;100198.96;223247;1263;138816;-85
2023/06/16 17:12:57;;;;;;;10.80;5.80;;;;;;;23.24;52.75;100202.52;223005;1264;140728;-85
2023/06/16 17:17:58;;;;;;;9.60;4.90;;;;;;;23.05;53.71;100206.74;223634;1263;96257;-86
2023/06/16 17:22:59;;;;;;;8.10;5.00;;;;;;;22.90;54.07;100211.61;223057;1263;139510;-86
2023/06/16 17:28:00;;;;;;;10.80;6.10;;;;;;;22.79;54.62;100216.28;223491;1264;139399;-86
2023/06/16 17:33:00;;;;;;;11.00;5.30;;;;;;;22.64;54.78;100215.63;222909;1263;140547;-85
2023/06/16 17:38:01;;;;;;;8.50;4.90;;;;;;;22.53;54.99;100216.73;222382;1264;138464;-86
2023/06/16 17:43:03;;;;;;;7.30;4.50;;;;;;;22.40;55.32;100213.96;221057;1267;140798;-86
2023/06/16 17:48:03;;;;;;;11.10;4.40;;;;;;;22.26;55.07;100214.28;223423;1263;106029;-86
2023/06/16 17:53:04;;;;;;;8.50;3.90;;;;;;;22.18;55.64;100214.27;222833;1264;140014;-86
2023/06/16 17:58:04;;;;;;;6.90;3.70;;;;;;;22.11;55.65;100216.30;223543;1264;137986;-86
2023/06/16 18:03:05;;;;;;;7.50;4.20;;;;;;;22.04;55.53;100218.81;222938;1263;140935;-87
2023/06/16 18:08:06;;;;;;;7.80;4.80;;;;;;;21.89;55.60;100222.00;223677;1264;138175;-86
2023/06/16 18:13:06;;;;;;;7.00;4.10;;;;;;;21.77;55.92;100219.89;222925;1264;140330;-86
2023/06/16 18:18:06;;;;;;;8.10;3.80;;;;;;;21.70;56.41;100215.60;223674;1264;96379;-86
2023/06/16 18:23:07;;;;;;;7.60;4.50;;;;;;;21.61;56.73;100214.76;223070;1263;141311;-87
2023/06/16 18:28:08;;;;;;;8.80;4.40;;;;;;;21.53;57.08;100212.52;223411;1264;138784;-86
2023/06/16 18:33:09;;;;;;;7.20;4.00;;;;;;;21.38;57.45;100212.85;222804;1264;139871;-87
2023/06/16 18:38:09;;;;;;;8.40;4.80;;;;;;;21.21;58.04;100208.17;223304;1264;333477;-85
2023/06/16 18:43:10;;;;;;;8.10;4.20;;;;;;;21.08;58.70;100212.88;223076;1263;140166;-85
2023/06/16 18:48:10;;;;;;;8.20;4.50;;;;;;;20.94;58.64;100221.02;223684;1263;96819;-85
2023/06/16 18:53:13;;;;;;;8.60;4.70;;;;;;;20.76;59.57;100222.18;223012;1263;140462;-86
2023/06/16 18:58:13;;;;;;;10.60;5.30;;;;;;;20.53;60.14;100230.94;223646;1264;138128;-86
2023/06/16 19:03:14;;;;;;;10.10;6.10;;;;;;;20.39;60.95;100235.24;222862;1264;141636;-86
2023/06/16 19:08:14;;;;;;;12.50;6.20;;;;;;;20.22;61.65;100240.65;223569;1263;138953;-87
2023/06/16 19:13:15;;;;;;;10.50;5.70;;;;;;;20.01;64.05;100246.24;223087;1263;140478;-87
2023/06/16 19:18:15;;;;;;;10.50;5.60;;;;;;;19.77;65.15;100253.89;223438;1264;138633;-86
2023/06/16 19:23:16;;;;;;;11.40;5.70;;;;;;;19.52;65.94;100255.08;223131;1263;141562;-86
2023/06/16 19:28:19;;;;;;;11.70;5.50;;;;;;;19.33;66.66;100259.04;221014;1264;138475;-87
2023/06/16 19:33:19;;;;;;;11.50;5.10;;;;;;;19.13;67.64;100261.79;222305;1265;141247;-87
2023/06/16 19:38:20;;;;;;;8.50;4.70;;;;;;;18.94;68.27;100258.13;223543;1264;138451;-87
2023/06/16 19:43:20;;;;;;;14.70;5.90;;;;;;;18.81;68.72;100258.61;223147;1264;140817;-87
2023/06/16 19:48:21;;;;;;;7.70;4.10;;;;;;;18.66;69.71;100260.52;223668;1263;138435;-87
2023/06/16 19:53:21;;;;;;;9.50;5.30;;;;;;;18.49;70.05;100264.91;223038;1264;140685;-87
2023/06/16 19:58:22;;;;;;;9.50;5.00;;;;;;;18.32;70.13;100265.05;223614;1264;138268;-87
2023/06/16 20:03:22;;;;;;;9.80;5.50;;;;;;;18.17;71.10;100269.05;222936;1264;141434;-87
2023/06/16 20:08:24;;;;;;;10.30;6.20;;;;;;;17.95;72.15;100261.90;223636;1263;138851;-86
2023/06/16 20:13:24;;;;;;;8.50;5.00;;;;;;;17.77;72.92;100261.64;223088;1264;140964;-87
2023/06/16 20:18:25;;;;;;;13.20;6.00;;;;;;;17.65;73.40;100262.06;223690;1264;139036;-87
2023/06/16 20:23:26;;;;;;;11.70;4.90;;;;;;;17.48;73.91;100267.32;223179;1263;140949;-87
2023/06/16 20:28:26;;;;;;;11.90;6.30;;;;;;;17.34;74.27;100265.97;223654;1264;139446;-87
2023/06/16 20:33:27;;;;;;;9.90;5.60;;;;;;;17.23;74.96;100262.86;222867;1264;143360;-87
2023/06/16 20:38:29;;;;;;;11.00;6.30;;;;;;;17.08;75.77;100264.86;223645;1264;140185;-87
2023/06/16 20:43:29;;;;;;;11.60;6.30;;;;;;;16.93;76.51;100266.48;223120;1264;142256;-87
2023/06/16 20:48:31;;;;;;;12.10;6.00;;;;;;;16.81;76.79;100267.50;223543;1267;139676;-87
2023/06/16 20:53:34;;;;;;;10.50;6.30;;;;;;;16.70;77.07;100266.63;223045;1264;141252;-88
2023/06/16 20:58:36;;;;;;;10.60;6.00;;;;;;;16.62;77.99;100269.05;223482;1264;138984;-87
2023/06/16 21:03:36;;;;;;;11.30;7.00;;;;;;;16.52;78.45;100262.80;223052;1265;141241;-88
2023/06/16 21:08:38;;;;;;;10.40;6.10;;;;;;;16.42;78.79;100257.73;223658;1263;140016;-87
2023/06/16 21:13:39;;;;;;;10.30;6.90;;;;;;;16.33;79.51;100262.18;221239;1263;140729;-87
2023/06/16 21:18:40;;;;;;;11.90;7.20;;;;;;;16.20;80.42;100253.59;222089;1264;139364;-87
2023/06/16 21:23:40;;;;;;;12.10;7.10;;;;;;;16.11;80.61;100245.93;222974;1264;140646;-87
2023/06/16 21:28:41;;;;;;;10.80;6.40;;;;;;;16.05;81.31;100240.39;223400;1264;139031;-87
2023/06/16 21:33:42;;;;;;;11.30;7.30;;;;;;;15.99;81.42;100235.39;223021;1264;141391;-87
2023/06/16 21:38:43;;;;;;;11.20;6.30;;;;;;;15.95;81.90;100243.86;223377;1264;139122;-87
2023/06/16 21:43:44;;;;;;;13.90;7.70;;;;;;;15.91;82.54;100241.85;223084;1265;141382;-87
2023/06/16 21:48:44;;;;;;;11.10;6.60;;;;;;;15.88;83.14;100241.73;223347;1264;139347;-87
2023/06/16 21:53:45;;;;;;;12.60;8.30;;;;;;;15.86;83.25;100240.48;223180;1264;141544;-87
2023/06/16 21:58:45;;;;;;;12.20;6.70;;;;;;;15.83;83.62;100238.86;223479;1264;138870;-87
2023/06/16 22:03:46;;;;;;;12.90;7.90;;;;;;;15.81;84.60;100240.23;222989;1264;141114;-87
2023/06/16 22:08:46;;;;;;;12.80;8.80;;;;;;;15.78;85.46;100240.54;223550;1264;139124;-87
2023/06/16 22:13:46;;;;;;;12.80;8.20;;;;;;;15.74;86.39;100245.09;223028;1264;140823;-87
2023/06/16 22:18:47;;;;;;;12.40;7.90;;;;;;;15.70;86.47;100243.47;223577;1264;139012;-87
2023/06/16 22:23:48;;;;;;;10.30;7.00;;;;;;;15.66;86.82;100240.35;223160;1264;141117;-87
2023/06/16 22:28:48;;;;;;;13.90;8.50;;;;;;;15.63;87.07;100244.52;223518;1264;140168;-86
2023/06/16 22:33:49;;;;;;;12.20;8.50;;;;;;;15.61;87.33;100239.87;223337;1264;153440;-88
2023/06/16 22:38:49;;;;;;;13.10;8.10;;;;;;;15.60;87.83;100237.74;222900;1265;140554;-87
2023/06/16 22:43:52;;;;;;;14.10;9.30;;;;;;;15.59;87.91;100238.70;223609;1264;139058;-87
2023/06/16 22:48:53;;;;;;;16.70;9.90;;;;;;;15.57;88.79;100238.48;222738;1267;141304;-87
2023/06/16 22:53:53;;;;;;;11.70;8.20;;;;;;;15.54;89.25;100239.40;223518;1263;96528;-87
2023/06/16 22:58:54;;;;;;;12.00;9.10;;;;;;;15.51;89.78;100240.39;222202;1264;163787;-87